Rhinelander Oneida County Airport
KRHI : now visible

Airfield :











YOU CAN JOIN US ON...

 
LOGIN :

Register | Disclaimer

   EN    FR    IT 

 









Legend :    VFR   Marginal VFR   IFR   Intensive IFR   Very Intensive IFR
Visi :
Ceiling :
>= 8 km
>= 3000ft
5 to 8 km
1000 to 3000 ft
1500m to 5 km
500 to 1000 ft
800 to 1500m
200 to 500 ft
< 800m
< 200 ft
Symbols :   Thunderstorms  Fog  Heavy snow  Heavy precipitations  Wind > 20 kt






- Airport Elevation : 1624 ft
- IATA code : RHI


KRHI - Rhinelander Oneida County

CURRENT METAR :
  • 171153Z AUTO 11006KT 10SM BKN046 OVC100 M12/M16 A3004 RMK AO2 SLP207 T11171156 11111 21150 55002

EXPIRED METARs :
  • 171053Z AUTO 09007KT 10SM OVC043 M12/M16 A3004 RMK AO2 SLP205 T11171161
  • 170953Z AUTO 09006KT 10SM OVC050 M13/M18 A3004 RMK AO2 SLP205 T11331178

TAF KRHI
Valid from the 17 at 12:00 until the 18 at 12:00 UTC


171120Z 1712/1812 11005KT P6SM BKN050
FM171400 14007G16KT P6SM OVC030
FM171600 15009G17KT 5SM -SHSN OVC016
FM172200 13003KT 2SM -SN OVC006
FM180400 34006KT 4SM -SN OVC008
FM180900 32009G18KT P6SM -SHSN OVC011



MET'MAP, your aeronautical weather chart ! - Copyright ORBIFLY December 2007 - Disclaimer

ORBIFLY MET'MAP TEAM :

Programming & Development : Alexandra Zaïnal
Concept & original design : Baudouin d'Aumeries
Assistance for programming : Marc-Olivier Méhu
Technical & hardware support : Manuel Goepfert

Contact : metmap@orbifly.com




SOURCES & CREDITS :

   NOAA       Earth
Advisory